createdAt,value
2016-10-16T18:44:01.198Z,1013.48
2016-10-16T18:45:01.215Z,1013.45
2016-10-16T18:46:01.222Z,1013.49
2016-10-16T18:47:01.228Z,1013.47
2016-10-16T18:48:01.235Z,1013.47
2016-10-16T18:49:01.242Z,1013.43
2016-10-16T18:50:01.248Z,1013.46
2016-10-16T18:51:01.257Z,1013.47
2016-10-16T18:52:01.263Z,1013.42
2016-10-16T18:53:01.270Z,1013.44
2016-10-16T18:54:01.276Z,1013.4
2016-10-16T18:55:01.283Z,1013.44
2016-10-16T18:56:01.291Z,1013.44
2016-10-16T18:57:01.299Z,1013.46
2016-10-16T18:58:01.304Z,1013.45
2016-10-16T18:59:01.311Z,1013.49
2016-10-16T19:00:01.317Z,1013.5
2016-10-16T19:01:01.326Z,1013.53
2016-10-16T19:02:01.332Z,1013.53
2016-10-16T19:03:01.338Z,1013.49
2016-10-16T19:04:01.346Z,1013.54
2016-10-16T19:05:01.352Z,1013.53
2016-10-16T19:06:01.359Z,1013.53
2016-10-16T19:07:01.416Z,1013.53
2016-10-16T19:08:01.375Z,1013.55
2016-10-16T19:09:01.379Z,1013.52
2016-10-16T19:10:01.387Z,1013.52
2016-10-16T19:11:01.444Z,1013.48
2016-10-16T19:12:01.400Z,1013.52
2016-10-16T19:13:01.407Z,1013.49
2016-10-16T19:14:01.414Z,1013.52
2016-10-16T19:15:01.422Z,1013.5
2016-10-16T19:16:01.427Z,1013.56
2016-10-16T19:17:01.433Z,1013.5
2016-10-16T19:18:01.440Z,1013.53
2016-10-16T19:19:01.447Z,1013.54
2016-10-16T19:20:01.503Z,1013.52
2016-10-16T19:21:01.460Z,1013.53
2016-10-16T19:22:01.467Z,1013.55
2016-10-16T19:23:01.474Z,1013.52
2016-10-16T19:24:01.832Z,1013.51
2016-10-16T19:25:01.539Z,1013.51
2016-10-16T19:26:01.494Z,1013.55
2016-10-16T19:27:01.500Z,1013.58
2016-10-16T19:28:01.507Z,1013.54
2016-10-16T19:29:01.515Z,1013.58
2016-10-16T19:30:01.571Z,1013.57
2016-10-16T19:31:01.527Z,1013.58
2016-10-16T19:32:01.534Z,1013.6
2016-10-16T19:33:01.541Z,1013.54
2016-10-16T19:34:01.548Z,1013.56
2016-10-16T19:35:01.606Z,1013.58
2016-10-16T19:36:01.562Z,1013.58
2016-10-16T19:37:01.569Z,1013.59
2016-10-16T19:38:01.626Z,1013.62
2016-10-16T19:39:01.582Z,1013.61
2016-10-16T19:40:01.589Z,1013.55
2016-10-16T19:41:01.597Z,1013.56
2016-10-16T19:42:01.602Z,1013.59
2016-10-16T19:43:01.610Z,1013.55
2016-10-16T19:44:01.667Z,1013.53
2016-10-16T19:45:01.673Z,1013.57
2016-10-16T19:46:01.630Z,1013.5
2016-10-16T19:47:01.636Z,1013.5
2016-10-16T19:48:01.643Z,1013.54
2016-10-16T19:49:01.649Z,1013.53
2016-10-16T19:50:01.657Z,1013.53
2016-10-16T19:51:01.664Z,1013.55
2016-10-16T19:52:01.671Z,1013.55
2016-10-16T19:53:01.677Z,1013.56
2016-10-16T19:54:01.684Z,1013.59
2016-10-16T19:55:01.742Z,1013.61
2016-10-16T19:56:01.748Z,1013.56
2016-10-16T19:57:01.704Z,1013.58
2016-10-16T19:58:01.710Z,1013.52
2016-10-16T19:59:01.717Z,1013.51
2016-10-16T20:00:01.725Z,1013.53
2016-10-16T20:01:01.731Z,1013.52
2016-10-16T20:02:01.738Z,1013.49
2016-10-16T20:03:01.746Z,1013.49
2016-10-16T20:04:01.752Z,1013.45
2016-10-16T20:05:02.058Z,1013.46
2016-10-16T20:06:01.816Z,1013.52
2016-10-16T20:07:01.773Z,1013.55
2016-10-16T20:08:01.777Z,1013.59
2016-10-16T20:09:01.786Z,1013.52
2016-10-16T20:10:01.792Z,1013.55
2016-10-16T20:11:01.797Z,1013.53
2016-10-16T20:12:01.810Z,1013.55
2016-10-16T20:13:01.813Z,1013.54
2016-10-16T20:14:01.819Z,1013.52
2016-10-16T20:15:01.875Z,1013.52
2016-10-16T20:16:01.832Z,1013.54
2016-10-16T20:17:01.839Z,1013.54
2016-10-16T20:18:01.846Z,1013.55
2016-10-16T20:19:01.852Z,1013.53
2016-10-16T20:20:01.860Z,1013.53
2016-10-16T20:21:01.866Z,1013.51
2016-10-16T20:22:01.872Z,1013.5
2016-10-16T20:23:01.879Z,1013.53
2016-10-16T20:24:01.887Z,1013.54
2016-10-16T20:25:01.894Z,1013.57
2016-10-16T20:26:01.900Z,1013.62
2016-10-16T20:27:01.907Z,1013.63
2016-10-16T20:28:01.915Z,1013.71
2016-10-16T20:29:01.919Z,1013.68
2016-10-16T20:30:01.927Z,1013.68
2016-10-16T20:31:01.985Z,1013.65
2016-10-16T20:32:01.940Z,1013.62
2016-10-16T20:33:01.997Z,1013.6
2016-10-16T20:34:02.005Z,1013.56
2016-10-16T20:35:01.962Z,1013.58
2016-10-16T20:36:01.969Z,1013.55
2016-10-16T20:37:01.975Z,1013.58
2016-10-16T20:38:01.984Z,1013.65
2016-10-16T20:39:01.989Z,1013.67
2016-10-16T20:40:01.996Z,1013.68
2016-10-16T20:41:02.001Z,1013.68
2016-10-16T20:42:02.010Z,1013.7
2016-10-16T20:43:02.016Z,1013.67
2016-10-16T20:44:02.022Z,1013.62
2016-10-16T20:45:02.029Z,1013.56
2016-10-16T20:46:02.086Z,1013.51
2016-10-16T20:47:02.043Z,1013.47
2016-10-16T20:48:02.049Z,1013.5
2016-10-16T20:49:02.056Z,1013.52
2016-10-16T20:50:02.113Z,1013.55
2016-10-16T20:51:02.069Z,1013.56
2016-10-16T20:52:02.076Z,1013.53
2016-10-16T20:53:02.083Z,1013.51
2016-10-16T20:54:02.090Z,1013.51
2016-10-16T20:55:02.146Z,1013.55
2016-10-16T20:56:02.153Z,1013.61
2016-10-16T20:57:02.109Z,1013.64
2016-10-16T20:58:02.165Z,1013.67
2016-10-16T20:59:02.122Z,1013.68
2016-10-16T21:00:02.131Z,1013.68
2016-10-16T21:01:02.137Z,1013.67
2016-10-16T21:02:02.144Z,1013.66
2016-10-16T21:03:02.150Z,1013.67
2016-10-16T21:04:02.157Z,1013.62
2016-10-16T21:05:02.164Z,1013.65
2016-10-16T21:06:02.170Z,1013.7
2016-10-16T21:07:02.227Z,1013.67
2016-10-16T21:08:02.185Z,1013.7
2016-10-16T21:09:02.192Z,1013.68
2016-10-16T21:10:02.198Z,1013.73
2016-10-16T21:11:02.205Z,1013.71
2016-10-16T21:12:02.262Z,1013.76
2016-10-16T21:13:02.218Z,1013.75
2016-10-16T21:14:02.225Z,1013.78
2016-10-16T21:15:02.232Z,1013.77
2016-10-16T21:16:02.239Z,1013.74
2016-10-16T21:17:02.245Z,1013.73
2016-10-16T21:18:02.251Z,1013.73
2016-10-16T21:19:02.258Z,1013.78
2016-10-16T21:20:02.315Z,1013.78
2016-10-16T21:21:02.271Z,1013.79
2016-10-16T21:22:02.278Z,1013.79
2016-10-16T21:23:02.286Z,1013.81
2016-10-16T21:24:02.292Z,1013.8
2016-10-16T21:25:02.297Z,1013.81
2016-10-16T21:26:02.306Z,1013.75
2016-10-16T21:27:02.363Z,1013.71
2016-10-16T21:28:02.318Z,1013.73
2016-10-16T21:29:02.325Z,1013.74
2016-10-16T21:30:02.332Z,1013.78
2016-10-16T21:31:02.388Z,1013.78
2016-10-16T21:32:02.345Z,1013.81
2016-10-16T21:33:02.352Z,1013.84
2016-10-16T21:34:02.410Z,1013.8
2016-10-16T21:35:02.366Z,1013.83
2016-10-16T21:36:02.373Z,1013.84
2016-10-16T21:37:02.382Z,1013.87
2016-10-16T21:38:02.388Z,1013.85
2016-10-16T21:39:02.443Z,1013.83
2016-10-16T21:40:02.400Z,1013.79
2016-10-16T21:41:02.407Z,1013.81
2016-10-16T21:42:02.413Z,1013.79
2016-10-16T21:43:02.418Z,1013.73
2016-10-16T21:44:02.426Z,1013.78
2016-10-16T21:45:02.432Z,1013.71
2016-10-16T21:46:02.438Z,1013.75
2016-10-16T21:47:02.445Z,1013.69
2016-10-16T21:48:02.453Z,1013.68
2016-10-16T21:49:02.460Z,1013.71
2016-10-16T21:50:02.465Z,1013.65
2016-10-16T21:51:02.474Z,1013.65
2016-10-16T21:52:02.480Z,1013.63
2016-10-16T21:53:02.488Z,1013.62
2016-10-16T21:54:02.494Z,1013.64
2016-10-16T21:55:02.500Z,1013.66
2016-10-16T21:56:02.507Z,1013.69
2016-10-16T21:57:02.514Z,1013.75
2016-10-16T21:58:02.770Z,1013.74
2016-10-16T21:59:02.527Z,1013.7
2016-10-16T22:00:02.533Z,1013.67
2016-10-16T22:01:02.541Z,1013.69
2016-10-16T22:02:02.547Z,1013.69
2016-10-16T22:03:02.555Z,1013.67
2016-10-16T22:04:02.560Z,1013.7
2016-10-16T22:05:02.616Z,1013.7
2016-10-16T22:06:02.573Z,1013.63
2016-10-16T22:07:02.631Z,1013.61
2016-10-16T22:08:02.586Z,1013.64
2016-10-16T22:09:02.593Z,1013.63
2016-10-16T22:10:02.601Z,1013.65
2016-10-16T22:11:02.607Z,1013.71
2016-10-16T22:12:02.614Z,1013.71
2016-10-16T22:13:02.670Z,1013.73
2016-10-16T22:14:02.627Z,1013.7
2016-10-16T22:15:02.633Z,1013.7
2016-10-16T22:16:02.640Z,1013.69
2016-10-16T22:17:02.647Z,1013.66
2016-10-16T22:18:02.654Z,1013.65
2016-10-16T22:19:02.659Z,1013.67
2016-10-16T22:20:02.667Z,1013.61
2016-10-16T22:21:02.673Z,1013.6
2016-10-16T22:22:02.730Z,1013.61
2016-10-16T22:23:02.686Z,1013.63
2016-10-16T22:24:02.692Z,1013.67
2016-10-16T22:25:02.700Z,1013.68
2016-10-16T22:26:02.706Z,1013.66
2016-10-16T22:27:02.715Z,1013.62
2016-10-16T22:28:02.719Z,1013.66
2016-10-16T22:29:02.776Z,1013.65
2016-10-16T22:30:02.982Z,1013.66
2016-10-16T22:31:02.739Z,1013.67
2016-10-16T22:32:02.746Z,1013.69
2016-10-16T22:33:02.753Z,1013.67
2016-10-16T22:34:02.759Z,1013.67
2016-10-16T22:35:02.765Z,1013.65
2016-10-16T22:36:02.772Z,1013.63
2016-10-16T22:37:02.779Z,1013.65
2016-10-16T22:38:02.786Z,1013.61
2016-10-16T22:39:02.793Z,1013.58
2016-10-16T22:40:02.850Z,1013.56
2016-10-16T22:41:02.805Z,1013.57
2016-10-16T22:42:02.813Z,1013.58
2016-10-16T22:43:02.820Z,1013.55
2016-10-16T22:44:02.825Z,1013.55
2016-10-16T22:45:02.833Z,1013.55
2016-10-16T22:46:02.840Z,1013.51
2016-10-16T22:47:02.846Z,1013.54
2016-10-16T22:48:02.852Z,1013.48
2016-10-16T22:49:02.859Z,1013.53
2016-10-16T22:50:02.865Z,1013.54
2016-10-16T22:51:02.872Z,1013.54
2016-10-16T22:52:02.877Z,1013.52
2016-10-16T22:53:02.885Z,1013.5
2016-10-16T22:54:02.892Z,1013.49
2016-10-16T22:55:02.899Z,1013.46
2016-10-16T22:56:02.955Z,1013.43
2016-10-16T22:57:02.911Z,1013.45
2016-10-16T22:58:02.918Z,1013.43
2016-10-16T22:59:02.925Z,1013.45
2016-10-16T23:00:02.934Z,1013.49
2016-10-16T23:01:02.989Z,1013.44
2016-10-16T23:02:02.944Z,1013.44
2016-10-16T23:03:02.954Z,1013.44
2016-10-16T23:04:03.007Z,1013.45
2016-10-16T23:05:02.964Z,1013.38
2016-10-16T23:06:02.970Z,1013.36
2016-10-16T23:07:02.976Z,1013.36
2016-10-16T23:08:02.983Z,1013.33
2016-10-16T23:09:03.040Z,1013.33
2016-10-16T23:10:02.996Z,1013.35
2016-10-16T23:11:03.002Z,1013.39
2016-10-16T23:12:03.059Z,1013.36
2016-10-16T23:13:03.017Z,1013.35
2016-10-16T23:14:03.023Z,1013.38
2016-10-16T23:15:03.079Z,1013.36
2016-10-16T23:16:03.036Z,1013.38
2016-10-16T23:17:03.040Z,1013.36
2016-10-16T23:18:03.049Z,1013.38
2016-10-16T23:19:03.056Z,1013.36
2016-10-16T23:20:03.061Z,1013.38
2016-10-16T23:21:03.068Z,1013.31
2016-10-16T23:22:03.073Z,1013.34
2016-10-16T23:23:03.080Z,1013.36
2016-10-16T23:24:03.138Z,1013.34
2016-10-16T23:25:03.142Z,1013.34
2016-10-16T23:26:03.100Z,1013.34
2016-10-16T23:27:03.105Z,1013.32
2016-10-16T23:28:03.164Z,1013.33
2016-10-16T23:29:03.119Z,1013.27
2016-10-16T23:30:03.127Z,1013.31
2016-10-16T23:31:03.133Z,1013.31
2016-10-16T23:32:03.138Z,1013.31
2016-10-16T23:33:03.147Z,1013.31
2016-10-16T23:34:03.152Z,1013.32
2016-10-16T23:35:03.160Z,1013.33
2016-10-16T23:36:03.166Z,1013.24
2016-10-16T23:37:03.171Z,1013.29
2016-10-16T23:38:03.278Z,1013.25
2016-10-16T23:39:03.184Z,1013.22
2016-10-16T23:40:03.240Z,1013.2
2016-10-16T23:41:03.197Z,1013.25
2016-10-16T23:42:03.204Z,1013.2
2016-10-16T23:43:03.209Z,1013.17
2016-10-16T23:44:03.217Z,1013.18
2016-10-16T23:45:03.224Z,1013.21
2016-10-16T23:46:03.230Z,1013.23
2016-10-16T23:47:03.235Z,1013.23
2016-10-16T23:48:03.243Z,1013.25
2016-10-16T23:49:03.249Z,1013.23
2016-10-16T23:50:03.254Z,1013.23
2016-10-16T23:51:03.263Z,1013.26
2016-10-16T23:52:03.269Z,1013.26
2016-10-16T23:53:03.274Z,1013.22
2016-10-16T23:54:03.280Z,1013.22
2016-10-16T23:55:03.336Z,1013.2
2016-10-16T23:56:03.293Z,1013.21
2016-10-16T23:57:03.299Z,1013.18
2016-10-16T23:58:03.306Z,1013.18
2016-10-16T23:59:03.312Z,1013.21
